createdAt,value
2019-01-11T00:00:40.378Z,102974.84
2019-01-11T00:03:43.772Z,102978.31
2019-01-11T00:06:47.173Z,102979.51
2019-01-11T00:09:50.542Z,102978.39
2019-01-11T00:12:53.956Z,102974.42
2019-01-11T00:15:57.364Z,102980.27
2019-01-11T00:19:06.958Z,102968.68
2019-01-11T00:22:04.298Z,102960.89
2019-01-11T00:25:07.764Z,102961.80
2019-01-11T00:28:11.266Z,102960.18
2019-01-11T00:31:14.696Z,102955.05
2019-01-11T00:34:19.121Z,102960.73
2019-01-11T00:37:22.576Z,102963.02
2019-01-11T00:40:26.027Z,102961.52
2019-01-11T00:43:29.394Z,102971.00
2019-01-11T00:46:32.803Z,102965.84
2019-01-11T00:49:36.208Z,102968.92
2019-01-11T00:52:39.692Z,102966.83
2019-01-11T00:55:43.106Z,102961.39
2019-01-11T00:58:46.494Z,102962.90
2019-01-11T01:01:50.806Z,102968.79
2019-01-11T01:04:54.246Z,102969.98
2019-01-11T01:07:57.710Z,102973.86
2019-01-11T01:11:01.140Z,102967.99
2019-01-11T01:14:04.644Z,102970.10
2019-01-11T01:17:08.299Z,102966.25
2019-01-11T01:20:12.499Z,102964.87
2019-01-11T01:23:15.929Z,102965.85
2019-01-11T01:26:19.369Z,102966.89
2019-01-11T01:29:22.777Z,102965.66
2019-01-11T01:32:28.120Z,102970.10
2019-01-11T01:35:31.504Z,102968.99
2019-01-11T01:38:34.910Z,102969.91
2019-01-11T01:41:38.360Z,102975.74
2019-01-11T01:44:41.712Z,102972.01
2019-01-11T01:47:45.178Z,102976.49
2019-01-11T01:50:48.525Z,102980.02
2019-01-11T01:53:51.948Z,102980.51
2019-01-11T01:56:55.328Z,102981.14
2019-01-11T01:59:58.698Z,102982.36
2019-01-11T02:03:02.145Z,102988.47
2019-01-11T02:06:05.637Z,102989.03
2019-01-11T02:09:09.221Z,102984.98
2019-01-11T02:12:12.703Z,102988.84
2019-01-11T02:15:16.065Z,102982.38
2019-01-11T02:18:19.468Z,102980.13
2019-01-11T02:21:22.832Z,102979.18
2019-01-11T02:24:26.316Z,102981.07
2019-01-11T02:27:29.727Z,102975.04
2019-01-11T02:30:33.148Z,102963.30
2019-01-11T02:33:36.536Z,102967.73
2019-01-11T02:36:39.941Z,102965.43
2019-01-11T02:39:43.373Z,102961.08
2019-01-11T02:42:46.754Z,102962.78
2019-01-11T02:45:50.141Z,102961.49
2019-01-11T02:48:53.649Z,102958.54
2019-01-11T02:51:57.065Z,102955.68
2019-01-11T02:55:00.449Z,102953.69
2019-01-11T02:58:03.852Z,102945.48
2019-01-11T03:01:07.285Z,102950.06
2019-01-11T03:04:10.687Z,102944.14
2019-01-11T03:07:14.078Z,102946.20
2019-01-11T03:10:19.258Z,102952.92
2019-01-11T03:13:22.697Z,102946.59
2019-01-11T03:16:26.428Z,102940.77
2019-01-11T03:19:29.809Z,102939.26
2019-01-11T03:22:33.223Z,102941.65
2019-01-11T03:25:37.726Z,102946.91
2019-01-11T03:28:42.093Z,102942.30
2019-01-11T03:31:45.476Z,102941.91
2019-01-11T03:34:55.058Z,102941.88
2019-01-11T03:37:58.459Z,102939.61
2019-01-11T03:41:01.874Z,102936.73
2019-01-11T03:44:06.216Z,102935.51
2019-01-11T03:47:09.602Z,102935.51
2019-01-11T03:50:13.535Z,102941.42
2019-01-11T03:53:16.936Z,102946.96
2019-01-11T03:56:20.357Z,102946.46
2019-01-11T03:59:23.763Z,102950.56
2019-01-11T04:02:27.148Z,102952.22
2019-01-11T04:05:30.573Z,102950.32
2019-01-11T04:08:34.320Z,102948.76
2019-01-11T04:11:37.760Z,102942.54
2019-01-11T04:14:41.164Z,102954.81
2019-01-11T04:17:44.625Z,102954.81
2019-01-11T04:20:48.048Z,102950.92
2019-01-11T04:23:51.436Z,102952.65
2019-01-11T04:26:54.878Z,102950.58
2019-01-11T04:29:58.265Z,102944.78
2019-01-11T04:33:01.677Z,102937.86
2019-01-11T04:36:05.120Z,102944.26
2019-01-11T04:39:08.530Z,102948.86
2019-01-11T04:42:11.971Z,102957.50
2019-01-11T04:45:15.458Z,102953.31
2019-01-11T04:48:18.889Z,102955.68
2019-01-11T04:51:22.524Z,102956.43
2019-01-11T04:54:26.035Z,102956.22
2019-01-11T04:57:30.489Z,102946.25
2019-01-11T05:00:34.079Z,102951.52
2019-01-11T05:03:37.514Z,102945.72
2019-01-11T05:06:40.986Z,102941.23
2019-01-11T05:09:44.532Z,102943.41
2019-01-11T05:12:48.072Z,102941.56
2019-01-11T05:15:51.717Z,102948.30
2019-01-11T05:18:55.353Z,102942.30
2019-01-11T05:21:58.895Z,102941.95
2019-01-11T05:25:02.361Z,102937.15
2019-01-11T05:28:05.902Z,102937.15
2019-01-11T05:31:10.418Z,102933.92
2019-01-11T05:34:13.929Z,102940.91
2019-01-11T05:37:17.379Z,102941.80
2019-01-11T05:40:20.978Z,102948.28
2019-01-11T05:43:24.380Z,102941.91
2019-01-11T05:46:27.824Z,102944.36
2019-01-11T05:49:31.205Z,102939.67
2019-01-11T05:52:34.592Z,102945.43
2019-01-11T05:55:50.333Z,102945.08
2019-01-11T05:58:57.865Z,102947.84
2019-01-11T06:02:01.344Z,102944.68
2019-01-11T06:05:08.028Z,102945.07
2019-01-11T06:08:14.801Z,102942.52
2019-01-11T06:11:18.260Z,102941.54
2019-01-11T06:14:21.742Z,102944.47
2019-01-11T06:17:25.168Z,102945.30
2019-01-11T06:20:30.487Z,102941.25
2019-01-11T06:23:32.120Z,102944.04
2019-01-11T06:26:35.587Z,102943.97
2019-01-11T06:29:39.008Z,102942.12
2019-01-11T06:32:42.448Z,102938.10
2019-01-11T06:35:45.875Z,102935.76
2019-01-11T06:38:49.270Z,102938.14
2019-01-11T06:41:54.519Z,102928.50
2019-01-11T06:44:57.986Z,102929.89
2019-01-11T06:48:01.499Z,102929.63
2019-01-11T06:51:05.047Z,102934.70
2019-01-11T06:54:08.466Z,102936.20
2019-01-11T06:57:11.829Z,102937.98
2019-01-11T07:00:15.378Z,102932.63
2019-01-11T07:03:18.886Z,102937.07
2019-01-11T07:06:22.364Z,102930.65
2019-01-11T07:09:25.789Z,102930.72
2019-01-11T07:12:29.222Z,102932.42
2019-01-11T07:15:32.618Z,102929.12
2019-01-11T07:18:36.063Z,102933.80
2019-01-11T07:21:39.477Z,102933.56
2019-01-11T07:24:42.851Z,102929.89
2019-01-11T07:27:50.555Z,102935.21
2019-01-11T07:30:59.202Z,102932.28
2019-01-11T07:34:02.581Z,102937.39
2019-01-11T07:37:06.164Z,102933.96
2019-01-11T07:40:09.825Z,102931.77
2019-01-11T07:43:13.193Z,102942.47
2019-01-11T07:46:16.577Z,102939.23
2019-01-11T07:49:23.228Z,102934.18
2019-01-11T07:52:23.541Z,102940.46
2019-01-11T07:55:27.127Z,102937.73
2019-01-11T07:58:30.530Z,102940.64
2019-01-11T08:01:36.142Z,102944.52
2019-01-11T08:04:39.614Z,102942.68
2019-01-11T08:07:43.099Z,102940.19
2019-01-11T08:10:46.485Z,102944.12
2019-01-11T08:13:49.853Z,102939.28
2019-01-11T08:16:53.243Z,102938.11
2019-01-11T08:19:56.712Z,102938.62
2019-01-11T08:23:00.201Z,102942.84
2019-01-11T08:26:03.847Z,102944.41
2019-01-11T08:29:07.317Z,102936.95
2019-01-11T08:32:10.795Z,102943.21
2019-01-11T08:35:14.350Z,102942.75
2019-01-11T08:38:17.799Z,102939.31
2019-01-11T08:41:21.259Z,102938.58
2019-01-11T08:44:24.720Z,102942.63
2019-01-11T08:47:28.118Z,102939.58
2019-01-11T08:50:31.620Z,102940.66
2019-01-11T08:53:35.250Z,102940.24
2019-01-11T08:56:38.535Z,102926.41
2019-01-11T08:59:41.928Z,102927.92
2019-01-11T09:03:33.785Z,102925.86
2019-01-11T09:06:38.340Z,102932.03
2019-01-11T09:09:41.840Z,102936.32
2019-01-11T09:12:45.288Z,102935.97
2019-01-11T09:15:49.171Z,102937.78
2019-01-11T09:18:55.273Z,102932.79
2019-01-11T09:21:58.646Z,102928.52
2019-01-11T09:25:02.065Z,102926.19
2019-01-11T09:28:05.522Z,102925.27
2019-01-11T09:31:08.993Z,102927.92
2019-01-11T09:34:12.482Z,102924.16
2019-01-11T09:37:15.850Z,102918.71
2019-01-11T09:40:19.286Z,102924.62
2019-01-11T09:43:22.801Z,102924.89
2019-01-11T09:46:26.273Z,102928.40
2019-01-11T09:49:29.671Z,102930.14
2019-01-11T09:52:33.088Z,102927.64
2019-01-11T09:55:36.509Z,102933.26
2019-01-11T09:58:39.987Z,102933.54
2019-01-11T10:01:43.464Z,102931.55
2019-01-11T10:04:46.878Z,102922.61
2019-01-11T10:07:50.301Z,102921.83
2019-01-11T10:10:53.782Z,102919.61
2019-01-11T10:13:57.415Z,102923.49
2019-01-11T10:17:00.760Z,102927.36
2019-01-11T10:20:04.457Z,102924.90
2019-01-11T10:23:07.914Z,102911.67
2019-01-11T10:26:11.352Z,102912.80
2019-01-11T10:29:14.774Z,102908.89
2019-01-11T10:32:18.240Z,102898.35
2019-01-11T10:35:21.642Z,102899.40
2019-01-11T10:38:25.096Z,102895.02
2019-01-11T10:41:28.534Z,102892.55
2019-01-11T10:44:31.895Z,102895.13
2019-01-11T10:47:35.314Z,102890.97
2019-01-11T10:50:38.802Z,102884.49
2019-01-11T10:53:42.231Z,102882.44
2019-01-11T10:56:45.738Z,102881.65
2019-01-11T10:59:49.118Z,102879.79
2019-01-11T11:02:52.856Z,102875.82
2019-01-11T11:05:56.291Z,102872.33
2019-01-11T11:08:59.743Z,102873.40
2019-01-11T11:12:03.149Z,102867.14
2019-01-11T11:15:07.386Z,102860.89
2019-01-11T11:18:10.769Z,102865.27
2019-01-11T11:21:14.183Z,102870.38
2019-01-11T11:24:17.613Z,102864.09
2019-01-11T11:27:21.087Z,102856.63
2019-01-11T11:30:24.490Z,102851.07
2019-01-11T11:33:27.847Z,102847.07
2019-01-11T11:36:31.237Z,102847.28
2019-01-11T11:39:34.697Z,102845.32
2019-01-11T11:42:38.181Z,102846.06
2019-01-11T11:45:41.594Z,102843.40
2019-01-11T11:48:45.096Z,102841.89
2019-01-11T11:51:48.841Z,102837.05
2019-01-11T11:54:52.280Z,102846.65
2019-01-11T11:57:55.696Z,102841.80
2019-01-11T12:00:59.167Z,102834.89
2019-01-11T12:04:02.579Z,102818.66
2019-01-11T12:07:07.712Z,102810.34
2019-01-11T12:10:11.572Z,102817.32
2019-01-11T12:13:15.003Z,102816.45
2019-01-11T12:16:18.560Z,102821.72
2019-01-11T12:19:21.893Z,102825.49
2019-01-11T12:22:25.357Z,102815.93
2019-01-11T12:25:28.769Z,102802.44
2019-01-11T12:28:32.244Z,102799.54
2019-01-11T12:31:35.638Z,102801.02
2019-01-11T12:34:39.033Z,102791.58
2019-01-11T12:37:42.452Z,102791.59
2019-01-11T12:40:45.851Z,102794.12
2019-01-11T12:43:49.919Z,102786.18
2019-01-11T12:46:52.811Z,102784.53
2019-01-11T12:49:56.253Z,102784.62
2019-01-11T12:52:59.715Z,102782.14
2019-01-11T12:56:03.199Z,102779.85
2019-01-11T12:59:06.704Z,102779.95
2019-01-11T13:02:10.473Z,102772.03
2019-01-11T13:05:16.269Z,102772.36
2019-01-11T13:08:19.821Z,102772.64
2019-01-11T13:11:23.265Z,102771.46
2019-01-11T13:14:27.072Z,102776.63
2019-01-11T13:17:30.601Z,102775.31
2019-01-11T13:20:34.074Z,102774.07
2019-01-11T13:23:37.479Z,102775.10
2019-01-11T13:26:40.875Z,102771.78
2019-01-11T13:29:44.302Z,102774.62
2019-01-11T13:32:47.883Z,102781.05
2019-01-11T13:35:51.720Z,102773.97
2019-01-11T13:38:55.233Z,102766.97
2019-01-11T13:41:58.796Z,102766.16
2019-01-11T13:45:02.360Z,102776.21
2019-01-11T13:48:05.929Z,102769.56
2019-01-11T13:51:09.474Z,102765.65
2019-01-11T13:54:12.935Z,102765.96
2019-01-11T13:57:16.434Z,102762.88
2019-01-11T14:00:19.993Z,102773.94
2019-01-11T14:03:23.445Z,102768.74
2019-01-11T14:06:26.998Z,102765.82
2019-01-11T14:09:30.486Z,102764.99
2019-01-11T14:12:33.903Z,102766.93
2019-01-11T14:15:37.440Z,102771.26
2019-01-11T14:18:40.916Z,102770.72
2019-01-11T14:21:44.559Z,102775.49
2019-01-11T14:24:48.137Z,102772.72
2019-01-11T14:27:51.554Z,102776.84
2019-01-11T14:30:55.038Z,102780.75
2019-01-11T14:33:58.679Z,102785.93
2019-01-11T14:37:02.210Z,102781.06
2019-01-11T14:40:07.602Z,102777.94
2019-01-11T14:43:11.071Z,102776.14
2019-01-11T14:46:14.553Z,102777.81
2019-01-11T14:49:18.034Z,102780.60
2019-01-11T14:52:21.569Z,102784.60
2019-01-11T14:55:25.020Z,102788.07
2019-01-11T14:58:28.881Z,102788.83
2019-01-11T15:01:32.057Z,102788.36
2019-01-11T15:04:35.633Z,102796.40
2019-01-11T15:07:39.102Z,102792.52
2019-01-11T15:10:42.571Z,102783.60
2019-01-11T15:13:46.031Z,102788.99
2019-01-11T15:16:49.402Z,102787.53
2019-01-11T15:19:52.873Z,102785.08
2019-01-11T15:22:56.345Z,102786.74
2019-01-11T15:25:59.751Z,102781.27
2019-01-11T15:29:03.235Z,102780.43
2019-01-11T15:32:06.620Z,102784.01
2019-01-11T15:35:10.166Z,102784.91
2019-01-11T15:38:13.608Z,102785.25
2019-01-11T15:41:17.273Z,102789.99
2019-01-11T15:44:20.692Z,102785.88
2019-01-11T15:47:24.167Z,102785.36
2019-01-11T15:50:38.788Z,102782.93
2019-01-11T15:53:42.265Z,102772.58
2019-01-11T15:56:45.793Z,102775.62
2019-01-11T15:59:58.916Z,102771.67
2019-01-11T16:03:02.379Z,102765.67
2019-01-11T16:06:30.848Z,102768.93
2019-01-11T16:09:49.834Z,102766.62
2019-01-11T16:13:10.398Z,102760.22
2019-01-11T16:16:22.474Z,102762.95
2019-01-11T16:19:26.200Z,102769.73
2019-01-11T16:22:29.717Z,102768.79
2019-01-11T16:25:33.215Z,102762.32
2019-01-11T16:28:36.730Z,102758.59
2019-01-11T16:31:40.332Z,102750.28
2019-01-11T16:34:43.900Z,102761.88
2019-01-11T16:37:47.502Z,102759.34
2019-01-11T16:40:50.924Z,102756.75
2019-01-11T16:43:54.356Z,102757.83
2019-01-11T16:46:57.931Z,102760.92
2019-01-11T16:50:01.438Z,102770.15
2019-01-11T16:53:04.917Z,102768.81
2019-01-11T16:56:08.420Z,102764.92
2019-01-11T16:59:11.976Z,102773.72
2019-01-11T17:02:15.485Z,102775.66
2019-01-11T17:05:18.950Z,102775.93
2019-01-11T17:08:22.454Z,102775.62
2019-01-11T17:11:25.945Z,102766.42
2019-01-11T17:14:29.429Z,102772.79
2019-01-11T17:17:32.962Z,102768.87
2019-01-11T17:20:36.449Z,102762.62
2019-01-11T17:23:40.843Z,102754.66
2019-01-11T17:26:44.349Z,102753.12
2019-01-11T17:29:47.714Z,102758.68
2019-01-11T17:32:52.184Z,102756.36
2019-01-11T17:35:55.621Z,102753.18
2019-01-11T17:38:59.117Z,102756.67
2019-01-11T17:42:03.881Z,102767.58
2019-01-11T17:45:08.898Z,102763.35
2019-01-11T17:48:15.474Z,102760.57
2019-01-11T17:51:19.143Z,102763.64
2019-01-11T17:54:29.622Z,102767.33
2019-01-11T17:57:33.584Z,102773.56
2019-01-11T18:00:37.059Z,102765.13
2019-01-11T18:03:40.504Z,102769.34
2019-01-11T18:06:44.052Z,102769.71
2019-01-11T18:09:47.718Z,102762.38
2019-01-11T18:12:51.134Z,102761.08
2019-01-11T18:15:54.545Z,102758.57
2019-01-11T18:18:57.946Z,102758.56
2019-01-11T18:22:01.283Z,102755.53
2019-01-11T18:25:05.482Z,102757.53
2019-01-11T18:28:09.028Z,102755.44
2019-01-11T18:31:12.528Z,102766.44
2019-01-11T18:34:17.473Z,102764.43
2019-01-11T18:37:19.919Z,102767.47
2019-01-11T18:40:24.340Z,102759.46
2019-01-11T18:43:27.795Z,102757.44
2019-01-11T18:46:31.259Z,102755.29
2019-01-11T18:49:35.493Z,102759.57
2019-01-11T18:52:38.922Z,102753.94
2019-01-11T18:55:42.515Z,102760.05
2019-01-11T18:58:46.030Z,102763.53
2019-01-11T19:01:49.455Z,102768.92
2019-01-11T19:04:53.678Z,102766.07
2019-01-11T19:07:57.191Z,102762.62
2019-01-11T19:11:00.703Z,102759.39
2019-01-11T19:14:04.301Z,102761.63
2019-01-11T19:17:07.931Z,102764.20
2019-01-11T19:20:15.670Z,102767.01
2019-01-11T19:23:20.584Z,102760.05
2019-01-11T19:26:22.679Z,102757.51
2019-01-11T19:29:26.829Z,102766.66
2019-01-11T19:32:30.243Z,102760.39
2019-01-11T19:35:33.822Z,102767.48
2019-01-11T19:38:37.394Z,102769.74
2019-01-11T19:41:40.884Z,102772.27
2019-01-11T19:44:44.435Z,102769.02
2019-01-11T19:47:49.469Z,102769.19
2019-01-11T19:50:54.798Z,102772.31
2019-01-11T19:53:59.487Z,102777.54
2019-01-11T19:57:03.344Z,102775.47
2019-01-11T20:00:11.116Z,102774.26
2019-01-11T20:03:14.651Z,102763.36
2019-01-11T20:06:18.197Z,102764.53
2019-01-11T20:09:22.058Z,102758.64
2019-01-11T20:12:25.951Z,102759.47
2019-01-11T20:15:29.521Z,102754.44
2019-01-11T20:18:33.819Z,102750.32
2019-01-11T20:21:38.069Z,102745.64
2019-01-11T20:24:42.416Z,102750.09
2019-01-11T20:27:46.076Z,102747.27
2019-01-11T20:30:50.618Z,102752.75
2019-01-11T20:33:55.704Z,102752.67
2019-01-11T20:37:04.502Z,102762.21
2019-01-11T20:40:10.731Z,102762.28
2019-01-11T20:43:14.433Z,102763.67
2019-01-11T20:46:18.048Z,102760.15
2019-01-11T20:49:21.456Z,102764.08
2019-01-11T20:52:25.291Z,102757.23
2019-01-11T20:55:29.739Z,102757.35
2019-01-11T20:58:33.200Z,102761.76
2019-01-11T21:01:37.545Z,102758.37
2019-01-11T21:04:46.693Z,102750.92
2019-01-11T21:07:50.323Z,102753.73
2019-01-11T21:10:54.288Z,102754.62
2019-01-11T21:13:58.864Z,102758.78
2019-01-11T21:17:02.356Z,102760.41
2019-01-11T21:20:08.104Z,102759.43
2019-01-11T21:23:11.749Z,102764.53
2019-01-11T21:26:15.252Z,102758.04
2019-01-11T21:29:18.663Z,102767.64
2019-01-11T21:32:23.002Z,102765.82
2019-01-11T21:35:26.691Z,102761.60
2019-01-11T21:38:30.216Z,102767.29
2019-01-11T21:41:34.045Z,102770.61
2019-01-11T21:44:37.616Z,102769.84
2019-01-11T21:47:41.345Z,102768.32
2019-01-11T21:50:44.972Z,102767.70
2019-01-11T21:53:48.409Z,102771.52
2019-01-11T21:56:51.851Z,102769.70
2019-01-11T21:59:56.039Z,102767.07
2019-01-11T22:02:59.509Z,102775.43
2019-01-11T22:06:02.992Z,102777.75
2019-01-11T22:09:08.344Z,102778.45
2019-01-11T22:12:11.703Z,102776.01
2019-01-11T22:15:15.748Z,102774.53
2019-01-11T22:18:19.627Z,102779.36
2019-01-11T22:21:23.683Z,102777.15
2019-01-11T22:24:27.363Z,102776.59
2019-01-11T22:27:30.797Z,102769.25
2019-01-11T22:30:35.080Z,102780.69
2019-01-11T22:33:38.645Z,102776.97
2019-01-11T22:36:42.273Z,102766.41
2019-01-11T22:39:45.943Z,102762.02
2019-01-11T22:42:51.211Z,102764.22
2019-01-11T22:45:55.716Z,102765.89
2019-01-11T22:48:59.226Z,102771.58
2019-01-11T22:52:02.793Z,102767.02
2019-01-11T22:55:07.011Z,102760.18
2019-01-11T22:58:10.487Z,102762.63
2019-01-11T23:01:51.341Z,102768.36
2019-01-11T23:04:54.845Z,102764.33
2019-01-11T23:08:01.296Z,102775.28
2019-01-11T23:11:52.919Z,102768.64
2019-01-11T23:14:56.395Z,102766.45
2019-01-11T23:18:17.559Z,102763.08
2019-01-11T23:21:21.068Z,102765.54
2019-01-11T23:24:24.569Z,102764.09
2019-01-11T23:27:28.092Z,102764.49
2019-01-11T23:30:31.712Z,102763.73
2019-01-11T23:33:35.216Z,102761.84
2019-01-11T23:36:38.674Z,102765.14
2019-01-11T23:39:42.185Z,102768.78
2019-01-11T23:42:45.848Z,102762.49
2019-01-11T23:45:49.282Z,102763.38
2019-01-11T23:48:52.794Z,102762.09
2019-01-11T23:51:56.335Z,102763.68
2019-01-11T23:54:59.791Z,102765.54
2019-01-11T23:58:03.297Z,102759.48
